Time;durP1;ratioP1;P1;durP2;ratioP2;P2;SDS_P1;SDS_P2;PMS_P1;PMS_P2;Temp;Humidity;BMP_temperature;BMP_pressure;BME280_temperature;BME280_humidity;BME280_pressure;Samples;Min_cycle;Max_cycle;Signal;HPM_P1;HPM_P2
2024/01/30 00:00:33;;;;;;;1.70;1.43;;;;;5.70;95269.00;;;;7400689;19;20145;-82
2024/01/30 00:03:07;;;;;;;1.60;1.30;;;;;5.40;95273.00;;;;7399937;19;20492;-82
2024/01/30 00:05:38;;;;;;;2.60;1.50;;;;;5.70;95266.00;;;;7404242;19;20133;-83
2024/01/30 00:08:21;;;;;;;3.23;1.67;;;;;5.90;95268.00;;;;7400818;19;20535;-83
2024/01/30 00:10:56;;;;;;;2.10;1.60;;;;;5.90;95272.00;;;;7404175;19;20133;-82
2024/01/30 00:13:30;;;;;;;2.40;1.40;;;;;5.70;95271.00;;;;7399967;19;20154;-78
2024/01/30 00:15:59;;;;;;;1.83;1.30;;;;;6.20;95267.00;;;;7397223;19;20648;-81
2024/01/30 00:18:34;;;;;;;4.37;1.53;;;;;6.00;95272.00;;;;7397937;19;20143;-81
2024/01/30 00:21:09;;;;;;;2.33;1.60;;;;;6.20;95267.00;;;;7397037;19;20490;-79
2024/01/30 00:23:50;;;;;;;4.07;1.77;;;;;5.70;95277.00;;;;7397948;19;20144;-80
2024/01/30 00:26:18;;;;;;;2.83;1.50;;;;;6.10;95274.00;;;;7397683;19;20742;-80
2024/01/30 00:28:53;;;;;;;2.87;1.33;;;;;6.00;95276.00;;;;7397841;19;20160;-78
2024/01/30 00:31:21;;;;;;;2.63;1.60;;;;;5.90;95276.00;;;;7396891;19;20137;-80
2024/01/30 00:33:56;;;;;;;3.63;1.43;;;;;5.60;95274.00;;;;7396010;19;20207;-79
2024/01/30 00:36:23;;;;;;;3.67;1.70;;;;;6.10;95273.00;;;;7396273;19;20137;-81
2024/01/30 00:38:58;;;;;;;2.10;1.50;;;;;6.10;95277.00;;;;7396457;19;20172;-81
2024/01/30 00:41:39;;;;;;;2.10;1.47;;;;;6.10;95271.00;;;;7398694;19;20125;-79
2024/01/30 00:44:07;;;;;;;2.33;1.50;;;;;6.00;95273.00;;;;7395416;19;20176;-80
2024/01/30 00:46:41;;;;;;;3.33;1.60;;;;;6.30;95268.00;;;;7397174;19;21039;-80
2024/01/30 00:49:10;;;;;;;1.70;1.50;;;;;6.20;95274.00;;;;7396731;19;20184;-79
2024/01/30 00:51:45;;;;;;;1.90;1.43;;;;;6.30;95273.00;;;;7394694;19;20124;-79
2024/01/30 00:54:19;;;;;;;1.90;1.50;;;;;6.20;95268.00;;;;7395975;19;20143;-80
2024/01/30 00:56:49;;;;;;;1.53;1.30;;;;;6.50;95277.00;;;;7395154;19;20148;-80
2024/01/30 00:59:17;;;;;;;3.10;1.60;;;;;6.40;95268.00;;;;7396695;19;20688;-79
2024/01/30 01:01:52;;;;;;;1.50;1.40;;;;;6.00;95270.00;;;;7396439;19;20150;-80
2024/01/30 01:04:21;;;;;;;2.00;1.30;;;;;6.10;95273.00;;;;7398527;19;20478;-80
2024/01/30 01:06:55;;;;;;;3.33;1.50;;;;;6.40;95267.00;;;;7395115;19;20212;-81
2024/01/30 01:09:24;;;;;;;2.00;1.80;;;;;6.50;95272.00;;;;7395358;19;20178;-80
2024/01/30 01:11:59;;;;;;;3.03;1.47;;;;;6.50;95267.00;;;;7396607;19;20618;-80
2024/01/30 01:14:34;;;;;;;2.10;1.60;;;;;6.60;95266.00;;;;7395438;19;20140;-79
2024/01/30 01:17:02;;;;;;;3.57;1.80;;;;;6.80;95261.00;;;;7394867;19;20215;-79
2024/01/30 01:19:36;;;;;;;2.37;1.50;;;;;6.80;95276.00;;;;7396702;19;20589;-78
2024/01/30 01:22:10;;;;;;;1.70;1.30;;;;;6.70;95255.00;;;;7396231;19;20137;-82
2024/01/30 01:24:45;;;;;;;2.50;1.40;;;;;6.60;95264.00;;;;7401167;19;20145;-82
2024/01/30 01:27:12;;;;;;;5.33;1.70;;;;;6.60;95255.00;;;;7398124;19;20616;-81
2024/01/30 01:29:47;;;;;;;5.23;1.70;;;;;6.50;95255.00;;;;7398066;19;20149;-83
2024/01/30 01:32:16;;;;;;;4.00;1.57;;;;;6.80;95246.00;;;;7394979;19;20144;-82
2024/01/30 01:34:51;;;;;;;3.90;1.57;;;;;6.90;95253.00;;;;7397316;19;20132;-82
2024/01/30 01:37:26;;;;;;;1.97;1.40;;;;;6.70;95245.00;;;;7395517;19;20125;-82
2024/01/30 01:40:01;;;;;;;2.37;1.50;;;;;6.60;95253.00;;;;7397405;19;20144;-82
2024/01/30 01:42:36;;;;;;;3.33;1.50;;;;;6.70;95248.00;;;;7397249;19;20608;-83
2024/01/30 01:45:10;;;;;;;2.63;1.43;;;;;6.90;95248.00;;;;7394243;19;20136;-83
2024/01/30 01:47:47;;;;;;;3.07;1.53;;;;;7.00;95247.00;;;;7396877;19;20133;-83
2024/01/30 01:50:23;;;;;;;1.70;1.30;;;;;7.00;95253.00;;;;7395027;19;20174;-83
2024/01/30 01:52:58;;;;;;;3.30;1.40;;;;;6.70;95263.00;;;;7394365;19;20161;-83
2024/01/30 01:55:33;;;;;;;1.90;1.23;;;;;5.90;95267.00;;;;7395656;19;20186;-83
2024/01/30 01:58:09;;;;;;;6.03;1.70;;;;;5.10;95271.00;;;;7396065;19;20131;-82
2024/01/30 02:00:43;;;;;;;3.47;1.50;;;;;4.50;95265.00;;;;7398087;19;20149;-84
2024/01/30 02:03:17;;;;;;;2.40;1.70;;;;;4.10;95267.00;;;;7393747;19;20156;-82
2024/01/30 02:05:52;;;;;;;2.37;1.70;;;;;3.80;95264.00;;;;7396707;19;20145;-83
2024/01/30 02:08:24;;;;;;;2.60;1.70;;;;;3.60;95262.00;;;;7393640;19;20140;-84
2024/01/30 02:11:06;;;;;;;1.87;1.60;;;;;3.50;95268.00;;;;7396332;19;20121;-84
2024/01/30 02:13:34;;;;;;;1.70;1.30;;;;;3.60;95268.00;;;;7394635;19;20145;-82
2024/01/30 02:16:08;;;;;;;2.10;1.60;;;;;3.60;95269.00;;;;7395432;19;20161;-81
2024/01/30 02:18:41;;;;;;;1.90;1.60;;;;;3.50;95269.00;;;;7394743;19;20176;-83
2024/01/30 02:21:19;;;;;;;2.33;1.47;;;;;3.40;95271.00;;;;7400837;19;20165;-83
2024/01/30 02:23:48;;;;;;;2.47;1.30;;;;;3.40;95272.00;;;;7402215;19;20149;-83
2024/01/30 02:26:23;;;;;;;2.67;1.57;;;;;3.40;95268.00;;;;7401193;19;20132;-83
2024/01/30 02:28:51;;;;;;;2.20;1.50;;;;;3.30;95278.00;;;;7402465;19;20135;-84
2024/01/30 02:31:26;;;;;;;4.00;1.90;;;;;3.40;95278.00;;;;7401654;19;20133;-83
2024/01/30 02:33:54;;;;;;;4.20;1.67;;;;;3.50;95275.00;;;;7398891;19;20129;-80
2024/01/30 02:36:28;;;;;;;1.77;1.47;;;;;3.50;95276.00;;;;7398705;19;20132;-82
2024/01/30 02:39:03;;;;;;;2.20;1.40;;;;;3.50;95280.00;;;;7398992;19;20125;-80
2024/01/30 02:41:38;;;;;;;4.53;1.60;;;;;3.60;95271.00;;;;7398138;19;20237;-81
2024/01/30 02:44:12;;;;;;;3.03;2.00;;;;;3.50;95273.00;;;;7395548;19;20209;-81
2024/01/30 02:46:39;;;;;;;2.97;1.53;;;;;3.30;95281.00;;;;7398780;19;20133;-82
2024/01/30 02:49:14;;;;;;;2.83;1.57;;;;;3.40;95283.00;;;;7400343;19;20139;-80
2024/01/30 02:51:42;;;;;;;4.40;1.50;;;;;3.60;95272.00;;;;7399021;19;20605;-80
2024/01/30 02:54:16;;;;;;;2.40;1.50;;;;;3.90;95270.00;;;;7398618;19;20593;-80
2024/01/30 02:56:51;;;;;;;3.33;1.43;;;;;4.10;95264.00;;;;7396349;19;20128;-81
2024/01/30 02:59:24;;;;;;;4.83;1.73;;;;;4.30;95270.00;;;;7397100;19;20480;-80
2024/01/30 03:01:59;;;;;;;2.20;1.23;;;;;4.50;95269.00;;;;7396285;19;20165;-79
2024/01/30 03:04:33;;;;;;;2.73;1.67;;;;;4.20;95263.00;;;;7398199;19;20136;-80
2024/01/30 03:07:08;;;;;;;2.23;1.40;;;;;4.10;95259.00;;;;7396351;19;20494;-79
2024/01/30 03:09:49;;;;;;;3.40;1.60;;;;;3.90;95260.00;;;;7394777;19;20176;-80
2024/01/30 03:12:17;;;;;;;3.70;1.43;;;;;4.00;95262.00;;;;7397527;19;20133;-81
2024/01/30 03:14:51;;;;;;;3.10;1.70;;;;;3.90;95266.00;;;;7396756;19;20142;-80
2024/01/30 03:17:27;;;;;;;3.10;1.50;;;;;4.20;95258.00;;;;7394796;19;20140;-79
2024/01/30 03:20:00;;;;;;;3.40;1.47;;;;;4.20;95253.00;;;;7395651;19;20173;-80
2024/01/30 03:22:35;;;;;;;2.43;1.40;;;;;4.30;95249.00;;;;7398023;19;20121;-80
2024/01/30 03:25:08;;;;;;;2.17;1.40;;;;;4.20;95252.00;;;;7397247;19;20656;-80
2024/01/30 03:27:43;;;;;;;2.70;1.77;;;;;4.00;95265.00;;;;7395590;19;20163;-81
2024/01/30 03:30:13;;;;;;;3.17;1.60;;;;;4.60;95260.00;;;;7396560;19;20137;-79
2024/01/30 03:32:46;;;;;;;3.00;1.53;;;;;4.60;95258.00;;;;7394605;19;20132;-79
2024/01/30 03:35:15;;;;;;;1.97;1.40;;;;;5.30;95243.00;;;;7395232;19;20144;-80
2024/01/30 03:37:48;;;;;;;2.50;1.60;;;;;5.00;95250.00;;;;7396479;19;20199;-79
2024/01/30 03:40:25;;;;;;;2.20;1.37;;;;;5.00;95251.00;;;;7395239;19;20144;-80
2024/01/30 03:42:52;;;;;;;2.00;1.43;;;;;4.80;95252.00;;;;7394835;19;20788;-80
2024/01/30 03:45:27;;;;;;;3.70;1.50;;;;;5.00;95244.00;;;;7394450;19;20146;-79
2024/01/30 03:47:54;;;;;;;1.97;1.60;;;;;5.00;95256.00;;;;7394837;19;20164;-80
2024/01/30 03:50:22;;;;;;;1.70;1.60;;;;;5.30;95252.00;;;;7394916;19;20220;-81
2024/01/30 03:53:04;;;;;;;2.30;1.37;;;;;5.00;95253.00;;;;7397062;19;20129;-80
2024/01/30 03:55:31;;;;;;;2.00;1.33;;;;;5.20;95254.00;;;;7395153;19;20137;-79
2024/01/30 03:58:05;;;;;;;2.20;1.67;;;;;5.40;95247.00;;;;7394174;19;20478;-80
2024/01/30 04:00:33;;;;;;;2.63;1.80;;;;;5.10;95255.00;;;;7395304;19;20140;-80
2024/01/30 04:03:08;;;;;;;3.63;1.70;;;;;5.10;95255.00;;;;7395928;19;20143;-80
2024/01/30 04:05:42;;;;;;;3.37;1.67;;;;;5.30;95256.00;;;;7393842;19;20137;-79
2024/01/30 04:08:31;;;;;;;1.87;1.70;;;;;5.30;95265.00;;;;7392697;19;20164;-81
2024/01/30 04:11:06;;;;;;;3.20;1.50;;;;;5.40;95254.00;;;;7393779;19;20182;-83
2024/01/30 04:13:43;;;;;;;1.90;1.70;;;;;4.90;95264.00;;;;7394871;19;20156;-80
2024/01/30 04:16:22;;;;;;;1.80;1.40;;;;;5.00;95260.00;;;;7394652;19;20165;-80
2024/01/30 04:18:57;;;;;;;3.20;1.70;;;;;5.00;95253.00;;;;7393482;19;20605;-80
2024/01/30 04:21:25;;;;;;;3.07;1.63;;;;;5.10;95252.00;;;;7393774;19;20157;-82
2024/01/30 04:24:00;;;;;;;4.07;1.50;;;;;5.40;95256.00;;;;7395921;19;20136;-79
2024/01/30 04:26:28;;;;;;;2.33;1.53;;;;;5.00;95255.00;;;;7396512;19;20117;-80
2024/01/30 04:29:02;;;;;;;3.10;1.50;;;;;5.00;95252.00;;;;7395326;19;20149;-80
2024/01/30 04:31:31;;;;;;;2.80;1.67;;;;;5.20;95256.00;;;;7395019;19;20584;-80
2024/01/30 04:34:05;;;;;;;3.00;1.50;;;;;5.20;95254.00;;;;7397201;19;20135;-80
2024/01/30 04:36:39;;;;;;;3.10;1.40;;;;;5.10;95253.00;;;;7393889;19;20152;-80
2024/01/30 04:39:13;;;;;;;2.07;1.30;;;;;5.20;95261.00;;;;7391501;19;20157;-81
2024/01/30 04:41:41;;;;;;;2.33;1.40;;;;;5.20;95257.00;;;;7393943;19;20136;-79
2024/01/30 04:44:09;;;;;;;2.00;1.50;;;;;5.20;95261.00;;;;7392745;19;20167;-80
2024/01/30 04:46:44;;;;;;;7.37;1.80;;;;;5.40;95257.00;;;;7392481;19;20144;-82
2024/01/30 04:49:11;;;;;;;2.67;1.70;;;;;5.60;95263.00;;;;7394215;19;20641;-79
2024/01/30 04:51:46;;;;;;;2.20;1.53;;;;;5.50;95260.00;;;;7395973;19;20173;-81
2024/01/30 04:54:13;;;;;;;3.50;1.90;;;;;5.40;95251.00;;;;7394332;19;20624;-81
2024/01/30 04:56:47;;;;;;;2.07;1.87;;;;;5.60;95243.00;;;;7393064;19;20143;-79
2024/01/30 04:59:21;;;;;;;1.50;1.37;;;;;5.50;95253.00;;;;7390745;19;20506;-79
2024/01/30 05:01:56;;;;;;;2.37;1.30;;;;;5.30;95248.00;;;;7393518;19;20121;-78
2024/01/30 05:04:30;;;;;;;3.37;1.47;;;;;5.30;95252.00;;;;7393587;19;20135;-78
2024/01/30 05:06:58;;;;;;;2.33;1.50;;;;;5.30;95259.00;;;;7390891;19;20133;-80
2024/01/30 05:09:29;;;;;;;2.73;1.60;;;;;5.40;95250.00;;;;7390623;19;20180;-78
2024/01/30 05:12:09;;;;;;;3.30;1.60;;;;;5.40;95253.00;;;;7398066;19;20145;-77
2024/01/30 05:14:37;;;;;;;2.53;1.47;;;;;5.50;95247.00;;;;7398644;19;20129;-79
2024/01/30 05:17:12;;;;;;;3.60;1.60;;;;;5.40;95256.00;;;;7397325;19;20199;-80
2024/01/30 05:19:47;;;;;;;3.30;1.40;;;;;5.30;95254.00;;;;7398870;19;20132;-79
2024/01/30 05:22:22;;;;;;;3.13;1.60;;;;;5.40;95249.00;;;;7400088;19;20132;-77
2024/01/30 05:24:50;;;;;;;2.30;1.40;;;;;5.40;95255.00;;;;7398727;19;20137;-79
2024/01/30 05:27:24;;;;;;;3.03;1.63;;;;;5.00;95256.00;;;;7399851;19;20158;-77
2024/01/30 05:29:52;;;;;;;3.00;1.57;;;;;5.50;95260.00;;;;7398742;19;20649;-77
2024/01/30 05:32:26;;;;;;;2.37;1.60;;;;;5.40;95247.00;;;;7397544;19;20155;-77
2024/01/30 05:34:55;;;;;;;1.67;1.30;;;;;5.20;95267.00;;;;7398094;19;20157;-78
2024/01/30 05:37:29;;;;;;;1.63;1.27;;;;;5.30;95255.00;;;;7397430;19;20170;-78
2024/01/30 05:39:57;;;;;;;3.97;1.57;;;;;5.30;95259.00;;;;7396546;19;20145;-77
2024/01/30 05:42:31;;;;;;;2.07;1.53;;;;;5.30;95268.00;;;;7397141;19;20612;-77
2024/01/30 05:45:06;;;;;;;1.70;1.40;;;;;5.20;95270.00;;;;7397177;19;20476;-76
2024/01/30 05:47:40;;;;;;;2.27;1.40;;;;;5.10;95271.00;;;;7399838;19;20649;-76
2024/01/30 05:50:08;;;;;;;3.20;1.77;;;;;5.10;95268.00;;;;7396997;19;20140;-77
2024/01/30 05:52:42;;;;;;;2.63;1.50;;;;;4.80;95276.00;;;;7398551;19;20137;-77
2024/01/30 05:55:16;;;;;;;2.20;1.63;;;;;5.00;95267.00;;;;7400297;19;20197;-79
2024/01/30 05:57:52;;;;;;;2.73;1.70;;;;;4.90;95264.00;;;;7404629;19;20625;-77
2024/01/30 06:00:19;;;;;;;1.43;1.27;;;;;4.70;95276.00;;;;7404274;19;20141;-78
2024/01/30 06:02:54;;;;;;;1.87;1.30;;;;;5.00;95268.00;;;;7405579;19;20137;-78
2024/01/30 06:05:23;;;;;;;2.57;1.60;;;;;5.00;95272.00;;;;7404774;19;20573;-82
2024/01/30 06:08:02;;;;;;;2.87;1.70;;;;;5.10;95265.00;;;;7404416;19;20155;-79
2024/01/30 06:10:36;;;;;;;2.50;1.50;;;;;5.30;95270.00;;;;7401522;19;20165;-79
2024/01/30 06:13:11;;;;;;;3.43;1.70;;;;;5.60;95274.00;;;;7404285;19;20144;-78
2024/01/30 06:15:38;;;;;;;4.13;1.60;;;;;5.50;95271.00;;;;7404132;19;20129;-78
2024/01/30 06:18:13;;;;;;;2.50;1.60;;;;;5.80;95265.00;;;;7405827;19;20157;-78
2024/01/30 06:20:40;;;;;;;2.50;1.60;;;;;5.90;95265.00;;;;7403220;19;20632;-80
2024/01/30 06:23:14;;;;;;;2.37;1.70;;;;;5.90;95270.00;;;;7404271;19;20137;-78
2024/01/30 06:25:42;;;;;;;2.60;1.57;;;;;5.70;95267.00;;;;7404726;19;20637;-78
2024/01/30 06:28:18;;;;;;;4.10;1.60;;;;;5.80;95279.00;;;;7403885;19;20136;-80
2024/01/30 06:30:47;;;;;;;1.93;1.60;;;;;5.90;95267.00;;;;7404503;19;20157;-81
2024/01/30 06:33:21;;;;;;;2.07;1.63;;;;;5.90;95270.00;;;;7404197;19;20214;-79
2024/01/30 06:35:49;;;;;;;1.73;1.47;;;;;5.60;95268.00;;;;7403968;19;20204;-81
2024/01/30 06:38:22;;;;;;;2.07;1.50;;;;;5.60;95266.00;;;;7402903;19;20140;-79
2024/01/30 06:40:57;;;;;;;2.60;1.83;;;;;5.80;95269.00;;;;7405724;19;20140;-81
2024/01/30 06:43:24;;;;;;;1.73;1.40;;;;;5.90;95269.00;;;;7402339;19;20141;-79
2024/01/30 06:45:59;;;;;;;3.40;1.50;;;;;5.90;95266.00;;;;7403992;19;20155;-79
2024/01/30 06:48:33;;;;;;;2.27;1.70;;;;;6.30;95264.00;;;;7403394;19;20173;-78
2024/01/30 06:51:00;;;;;;;2.40;1.77;;;;;6.30;95263.00;;;;7403537;19;20608;-79
2024/01/30 06:53:35;;;;;;;2.40;1.40;;;;;6.00;95261.00;;;;7403117;19;20625;-78
2024/01/30 06:56:09;;;;;;;2.47;1.67;;;;;6.10;95266.00;;;;7402807;19;20149;-81
2024/01/30 06:58:42;;;;;;;2.63;1.50;;;;;5.90;95264.00;;;;7402605;19;20162;-81
2024/01/30 07:01:11;;;;;;;3.33;1.70;;;;;6.30;95269.00;;;;7402243;19;20515;-78
2024/01/30 07:03:47;;;;;;;2.90;1.63;;;;;6.00;95270.00;;;;7401925;19;20469;-81
2024/01/30 07:06:16;;;;;;;2.73;1.77;;;;;6.50;95262.00;;;;7404392;19;20133;-80
2024/01/30 07:09:05;;;;;;;2.37;1.30;;;;;6.40;95266.00;;;;7401524;19;20218;-79
2024/01/30 07:11:39;;;;;;;1.77;1.30;;;;;6.50;95275.00;;;;7403068;19;20144;-78
2024/01/30 07:14:13;;;;;;;2.60;1.70;;;;;6.70;95265.00;;;;7404060;19;20133;-77
2024/01/30 07:16:40;;;;;;;2.57;1.70;;;;;6.90;95268.00;;;;7403703;19;20608;-77
2024/01/30 07:19:15;;;;;;;3.13;1.60;;;;;6.80;95266.00;;;;7400166;19;20207;-80
2024/01/30 07:21:49;;;;;;;2.97;1.97;;;;;6.80;95268.00;;;;7403577;19;20136;-77
2024/01/30 07:24:23;;;;;;;2.93;1.70;;;;;6.80;95267.00;;;;7402777;19;20169;-79
2024/01/30 07:26:56;;;;;;;2.30;1.27;;;;;6.90;95265.00;;;;7401420;19;20162;-78
2024/01/30 07:29:32;;;;;;;1.80;1.40;;;;;7.10;95266.00;;;;7401754;19;20647;-78
2024/01/30 07:32:07;;;;;;;2.20;1.60;;;;;7.10;95266.00;;;;7402212;19;20497;-78
2024/01/30 07:34:41;;;;;;;2.30;1.50;;;;;7.10;95272.00;;;;7401784;19;20605;-77
2024/01/30 07:37:33;;;;;;;3.90;1.70;;;;;7.10;95274.00;;;;7403453;19;20133;-78
2024/01/30 07:40:08;;;;;;;3.40;1.73;;;;;7.30;95276.00;;;;7400837;19;20459;-79
2024/01/30 07:42:45;;;;;;;2.43;1.33;;;;;7.50;95277.00;;;;7399869;19;20640;-80
2024/01/30 07:45:24;;;;;;;2.07;1.53;;;;;7.60;95270.00;;;;7400683;19;20490;-77
2024/01/30 07:47:52;;;;;;;2.00;1.63;;;;;7.80;95279.00;;;;7401153;19;20155;-79
2024/01/30 07:50:26;;;;;;;2.17;1.70;;;;;7.80;95285.00;;;;7400420;19;20221;-78
2024/01/30 07:52:59;;;;;;;2.50;1.83;;;;;7.70;95272.00;;;;7400856;19;20141;-77
2024/01/30 07:55:33;;;;;;;1.90;1.47;;;;;7.50;95289.00;;;;7402416;19;20146;-78
2024/01/30 07:58:01;;;;;;;5.40;2.07;;;;;7.60;95283.00;;;;7400357;19;20137;-78
2024/01/30 08:00:35;;;;;;;2.03;1.60;;;;;7.70;95286.00;;;;7397397;19;20221;-78
2024/01/30 08:03:09;;;;;;;2.57;1.53;;;;;8.00;95265.00;;;;7401407;19;20605;-79
2024/01/30 08:05:44;;;;;;;1.73;1.50;;;;;8.80;95269.00;;;;7400466;19;20662;-77
2024/01/30 08:08:18;;;;;;;2.20;1.47;;;;;8.90;95273.00;;;;7399876;19;20622;-78
2024/01/30 08:10:54;;;;;;;3.97;1.70;;;;;8.70;95277.00;;;;7398352;19;20625;-78
2024/01/30 08:13:33;;;;;;;4.07;1.63;;;;;8.90;95280.00;;;;7401855;19;20649;-79
2024/01/30 08:16:07;;;;;;;2.40;1.50;;;;;8.80;95281.00;;;;7399899;19;20136;-80
2024/01/30 08:18:41;;;;;;;2.72;2.00;;;;;8.80;95291.00;;;;7399827;19;20211;-80
2024/01/30 08:21:15;;;;;;;2.28;1.65;;;;;8.90;95282.00;;;;7399801;19;20144;-79
2024/01/30 08:23:44;;;;;;;1.87;1.70;;;;;9.00;95288.00;;;;7401925;19;20488;-83
2024/01/30 08:26:18;;;;;;;2.28;1.60;;;;;9.10;95290.00;;;;7402995;19;20147;-85
2024/01/30 08:28:53;;;;;;;2.40;1.60;;;;;9.50;95283.00;;;;7401972;19;20207;-85
2024/01/30 08:31:28;;;;;;;2.85;1.83;;;;;9.90;95278.00;;;;7398385;19;20147;-83
2024/01/30 08:34:02;;;;;;;3.53;1.60;;;;;10.30;95283.00;;;;7402141;19;20216;-83
2024/01/30 08:36:36;;;;;;;1.98;1.50;;;;;10.40;95293.00;;;;7400394;19;20653;-84
2024/01/30 08:39:11;;;;;;;2.67;1.60;;;;;10.60;95286.00;;;;7403332;19;20132;-84
2024/01/30 08:41:46;;;;;;;2.20;1.40;;;;;10.90;95297.00;;;;7401821;19;20128;-84
2024/01/30 08:44:14;;;;;;;3.67;1.95;;;;;10.80;95300.00;;;;7401322;19;20168;-82
2024/01/30 08:46:49;;;;;;;7.32;1.77;;;;;10.80;95296.00;;;;7400775;19;20151;-83
2024/01/30 08:49:18;;;;;;;2.80;1.60;;;;;11.00;95293.00;;;;7400250;19;20220;-83
2024/01/30 08:51:52;;;;;;;2.90;1.70;;;;;11.30;95307.00;;;;7402468;19;20148;-85
2024/01/30 08:54:20;;;;;;;2.55;1.60;;;;;10.90;95299.00;;;;7400822;19;20154;-85
2024/01/30 08:56:56;;;;;;;2.33;1.65;;;;;11.00;95309.00;;;;7400806;19;20145;-85
2024/01/30 08:59:33;;;;;;;3.17;1.88;;;;;11.00;95303.00;;;;7398596;19;20144;-85
2024/01/30 09:02:09;;;;;;;2.22;1.58;;;;;11.00;95311.00;;;;7399782;19;20215;-85
2024/01/30 09:04:39;;;;;;;2.88;1.80;;;;;10.90;95312.00;;;;7400873;19;20604;-84
2024/01/30 09:07:09;;;;;;;2.42;1.70;;;;;10.90;95315.00;;;;7402161;19;20128;-83
2024/01/30 09:09:49;;;;;;;3.42;1.58;;;;;10.90;95318.00;;;;7399387;19;20169;-84
2024/01/30 09:12:23;;;;;;;2.10;1.50;;;;;10.90;95311.00;;;;7401078;19;20132;-82
2024/01/30 09:14:58;;;;;;;2.28;1.63;;;;;11.00;95316.00;;;;7399199;19;20163;-85
2024/01/30 09:17:28;;;;;;;2.22;1.48;;;;;10.80;95320.00;;;;7401367;19;20153;-84
2024/01/30 09:20:02;;;;;;;3.25;1.80;;;;;10.70;95321.00;;;;7400827;19;20161;-83
2024/01/30 09:22:30;;;;;;;1.67;1.58;;;;;10.90;95314.00;;;;7401965;19;20133;-84
2024/01/30 09:25:04;;;;;;;3.13;1.70;;;;;11.00;95319.00;;;;7398426;19;20144;-83
2024/01/30 09:27:38;;;;;;;2.88;1.55;;;;;10.90;95312.00;;;;7399914;19;20221;-85
2024/01/30 09:30:12;;;;;;;1.85;1.52;;;;;11.20;95323.00;;;;7396213;19;20509;-84
2024/01/30 09:32:43;;;;;;;3.13;1.70;;;;;11.30;95323.00;;;;7401261;19;20136;-83
2024/01/30 09:35:17;;;;;;;3.90;1.80;;;;;11.10;95323.00;;;;7397179;19;20145;-78
2024/01/30 09:37:45;;;;;;;2.08;1.50;;;;;10.90;95325.00;;;;7398847;19;20140;-78
2024/01/30 09:40:25;;;;;;;1.85;1.65;;;;;11.10;95329.00;;;;7396148;19;20136;-81
2024/01/30 09:43:00;;;;;;;2.15;1.73;;;;;11.40;95338.00;;;;7396722;19;20236;-78
2024/01/30 09:45:34;;;;;;;2.97;2.08;;;;;11.00;95339.00;;;;7396341;19;20149;-77
2024/01/30 09:48:04;;;;;;;2.63;1.60;;;;;11.10;95342.00;;;;7396588;19;20656;-77
2024/01/30 09:50:36;;;;;;;2.67;1.63;;;;;11.00;95338.00;;;;7394813;19;20132;-78
2024/01/30 09:53:11;;;;;;;3.38;1.70;;;;;11.30;95344.00;;;;7396668;19;20169;-79
2024/01/30 09:55:49;;;;;;;2.88;1.75;;;;;11.20;95340.00;;;;7396523;19;20181;-78
2024/01/30 09:58:24;;;;;;;2.45;1.60;;;;;11.20;95346.00;;;;7396282;19;20480;-76
2024/01/30 10:00:53;;;;;;;3.90;1.83;;;;;11.60;95342.00;;;;7395034;19;20479;-80
2024/01/30 10:03:28;;;;;;;2.58;1.85;;;;;11.20;95339.00;;;;7397058;19;20155;-78
2024/01/30 10:05:57;;;;;;;3.15;1.90;;;;;11.70;95341.00;;;;7395317;19;20569;-78
2024/01/30 10:08:31;;;;;;;3.05;1.90;;;;;12.00;95346.00;;;;7396100;19;20152;-78
2024/01/30 10:11:06;;;;;;;2.83;1.52;;;;;12.30;95346.00;;;;7395202;19;20170;-78
2024/01/30 10:13:41;;;;;;;4.68;2.05;;;;;12.30;95338.00;;;;7395438;19;20473;-78
2024/01/30 10:16:16;;;;;;;2.55;1.60;;;;;12.80;95332.00;;;;7395840;19;20141;-78
2024/01/30 10:18:51;;;;;;;3.50;1.60;;;;;13.50;95325.00;;;;7397703;19;20149;-80
2024/01/30 10:21:20;;;;;;;2.20;1.50;;;;;14.00;95330.00;;;;7394231;19;20597;-76
2024/01/30 10:23:55;;;;;;;1.65;1.40;;;;;14.40;95327.00;;;;7396647;19;20231;-78
2024/01/30 10:26:29;;;;;;;4.45;1.90;;;;;13.80;95333.00;;;;7397749;19;20148;-77
2024/01/30 10:29:03;;;;;;;2.35;1.60;;;;;14.30;95323.00;;;;7394970;19;20137;-78
2024/01/30 10:31:37;;;;;;;3.90;1.70;;;;;14.30;95336.00;;;;7395961;19;20163;-79
2024/01/30 10:34:05;;;;;;;1.90;1.70;;;;;14.00;95344.00;;;;7397051;19;20165;-78
2024/01/30 10:36:55;;;;;;;2.33;1.67;;;;;12.20;95337.00;;;;7395518;19;20154;-76
2024/01/30 10:39:31;;;;;;;1.70;1.25;;;;;13.30;95344.00;;;;7394570;19;20148;-78
2024/01/30 10:42:09;;;;;;;3.63;1.52;;;;;13.40;95337.00;;;;7402614;19;20157;-78
2024/01/30 10:44:50;;;;;;;2.55;1.50;;;;;13.10;95336.00;;;;7401635;19;20182;-84
2024/01/30 10:47:26;;;;;;;2.60;1.85;;;;;13.10;95343.00;;;;7406643;19;20153;-84
2024/01/30 10:50:00;;;;;;;3.78;1.95;;;;;12.90;95333.00;;;;7404200;19;20149;-83
2024/01/30 10:52:36;;;;;;;1.90;1.50;;;;;12.80;95327.00;;;;7404941;19;20207;-83
2024/01/30 10:55:10;;;;;;;2.05;1.48;;;;;13.10;95339.00;;;;7404880;19;20132;-80
2024/01/30 10:57:38;;;;;;;2.85;1.48;;;;;13.30;95334.00;;;;7404136;19;20137;-82
2024/01/30 11:00:15;;;;;;;4.45;1.70;;;;;13.30;95340.00;;;;7403607;19;20513;-84
2024/01/30 11:02:45;;;;;;;2.03;1.55;;;;;13.20;95336.00;;;;7403391;19;20165;-85
2024/01/30 11:05:27;;;;;;;2.20;1.65;;;;;13.70;95328.00;;;;7404219;19;20149;-83
2024/01/30 11:08:12;;;;;;;3.45;1.95;;;;;13.10;95333.00;;;;7402830;19;20148;-83
2024/01/30 11:10:49;;;;;;;2.72;1.80;;;;;13.10;95332.00;;;;7402095;19;20157;-84
2024/01/30 11:13:26;;;;;;;9.95;1.70;;;;;13.20;95326.00;;;;7404486;19;20553;-82
2024/01/30 11:16:04;;;;;;;1.75;1.63;;;;;13.10;95323.00;;;;7403369;19;20144;-83
2024/01/30 11:18:39;;;;;;;2.25;1.80;;;;;13.30;95324.00;;;;7405320;19;20157;-83
2024/01/30 11:21:06;;;;;;;2.50;1.90;;;;;13.60;95320.00;;;;7401637;19;20132;-83
2024/01/30 11:23:42;;;;;;;2.80;1.60;;;;;13.70;95326.00;;;;7405124;19;20143;-81
2024/01/30 11:26:13;;;;;;;3.22;1.80;;;;;13.60;95320.00;;;;7403816;19;20157;-83
2024/01/30 11:28:53;;;;;;;4.50;1.80;;;;;13.90;95331.00;;;;7403583;19;20161;-83
2024/01/30 11:31:21;;;;;;;2.08;1.65;;;;;13.90;95324.00;;;;7403501;19;20228;-83
2024/01/30 11:33:57;;;;;;;2.65;1.63;;;;;14.20;95324.00;;;;7403104;19;20152;-82
2024/01/30 11:36:26;;;;;;;3.00;1.70;;;;;12.90;95317.00;;;;7403451;19;20589;-84
2024/01/30 11:39:02;;;;;;;6.20;1.80;;;;;13.80;95325.00;;;;7403615;19;20144;-84
2024/01/30 11:41:30;;;;;;;3.42;2.15;;;;;14.70;95315.00;;;;7402161;19;20133;-85
2024/01/30 11:44:04;;;;;;;2.83;1.85;;;;;15.30;95317.00;;;;7401485;19;20512;-83
2024/01/30 11:46:34;;;;;;;2.00;1.80;;;;;14.70;95311.00;;;;7402726;19;20158;-81
2024/01/30 11:49:09;;;;;;;4.20;1.98;;;;;15.80;95318.00;;;;7403465;19;20611;-84
2024/01/30 11:51:37;;;;;;;2.85;1.88;;;;;16.00;95310.00;;;;7401799;19;20161;-82
2024/01/30 11:54:12;;;;;;;3.08;2.08;;;;;17.50;95296.00;;;;7399845;19;20148;-79
2024/01/30 11:56:39;;;;;;;2.38;1.85;;;;;17.10;95287.00;;;;7399884;19;20151;-78
2024/01/30 11:59:14;;;;;;;2.45;1.60;;;;;17.30;95289.00;;;;7400386;19;20140;-79
2024/01/30 12:01:51;;;;;;;3.40;2.05;;;;;18.80;95287.00;;;;7398813;19;20199;-77
2024/01/30 12:04:29;;;;;;;2.42;1.73;;;;;19.10;95292.00;;;;7400827;19;20136;-78
2024/01/30 12:07:03;;;;;;;3.35;1.80;;;;;18.40;95301.00;;;;7400054;19;20672;-75
2024/01/30 12:09:31;;;;;;;4.85;1.80;;;;;18.60;95289.00;;;;7401345;19;20137;-78
2024/01/30 12:12:14;;;;;;;1.77;1.48;;;;;17.70;95282.00;;;;7401646;19;20139;-75
2024/01/30 12:14:42;;;;;;;2.00;1.80;;;;;18.40;95277.00;;;;7399821;19;20478;-75
2024/01/30 12:17:31;;;;;;;2.97;1.73;;;;;19.90;95279.00;;;;7398486;19;20144;-76
2024/01/30 12:20:10;;;;;;;2.15;1.50;;;;;20.80;95267.00;;;;7398949;19;20169;-77
2024/01/30 12:22:47;;;;;;;1.77;1.60;;;;;22.50;95261.00;;;;7399218;19;20142;-78
2024/01/30 12:25:23;;;;;;;2.90;1.80;;;;;21.90;95268.00;;;;7399024;19;20207;-76
2024/01/30 12:27:51;;;;;;;1.90;1.70;;;;;21.10;95270.00;;;;7399188;19;20152;-84
2024/01/30 12:30:25;;;;;;;1.95;1.60;;;;;19.80;95278.00;;;;7397915;19;20149;-80
2024/01/30 12:32:53;;;;;;;4.30;2.05;;;;;21.50;95269.00;;;;7399611;19;20612;-77
2024/01/30 12:35:28;;;;;;;2.05;1.70;;;;;19.90;95276.00;;;;7399135;19;20147;-76
2024/01/30 12:37:59;;;;;;;3.70;1.90;;;;;20.90;95266.00;;;;7399227;19;20596;-79
2024/01/30 12:40:34;;;;;;;2.65;1.70;;;;;21.30;95270.00;;;;7397765;19;20164;-78
2024/01/30 12:43:03;;;;;;;4.80;1.70;;;;;22.30;95266.00;;;;7398156;19;20165;-77
2024/01/30 12:45:38;;;;;;;2.97;1.80;;;;;22.70;95275.00;;;;7398859;19;20120;-79
2024/01/30 12:48:12;;;;;;;2.03;1.73;;;;;21.10;95285.00;;;;7398537;19;20600;-78
2024/01/30 12:50:46;;;;;;;2.05;1.75;;;;;21.90;95276.00;;;;7398427;19;20141;-78
2024/01/30 12:53:20;;;;;;;1.70;1.60;;;;;17.90;95291.00;;;;7398525;19;20133;-77